createdAt,value
2024-02-15T00:00:28.286Z,33.40
2024-02-15T00:03:15.906Z,28.90
2024-02-15T00:05:45.361Z,31.90
2024-02-15T00:08:12.891Z,33.17
2024-02-15T00:10:40.478Z,37.63
2024-02-15T00:13:08.056Z,33.20
2024-02-15T00:15:36.691Z,31.07
2024-02-15T00:18:04.941Z,34.60
2024-02-15T00:20:34.726Z,32.00
2024-02-15T00:23:02.364Z,33.37
2024-02-15T00:25:31.801Z,35.13
2024-02-15T00:28:01.350Z,32.10
2024-02-15T00:30:29.043Z,34.87
2024-02-15T00:32:56.829Z,35.30
2024-02-15T00:35:25.620Z,33.43
2024-02-15T00:37:53.702Z,35.80
2024-02-15T00:40:22.223Z,33.60
2024-02-15T00:42:49.869Z,37.30
2024-02-15T00:45:17.514Z,31.07
2024-02-15T00:47:45.244Z,35.17
2024-02-15T00:50:13.245Z,33.70
2024-02-15T00:52:40.976Z,31.77
2024-02-15T00:55:08.701Z,37.63
2024-02-15T00:57:36.254Z,33.43
2024-02-15T01:00:04.933Z,33.00
2024-02-15T01:02:32.652Z,30.60
2024-02-15T01:05:00.382Z,32.93
2024-02-15T01:07:28.541Z,31.80
2024-02-15T01:09:56.113Z,32.80
2024-02-15T01:12:23.711Z,32.80
2024-02-15T01:14:51.405Z,34.90
2024-02-15T01:17:19.001Z,31.63
2024-02-15T01:19:46.610Z,31.30
2024-02-15T01:22:14.219Z,34.00
2024-02-15T01:24:41.974Z,29.93
2024-02-15T01:27:10.713Z,31.90
2024-02-15T01:29:38.411Z,33.13
2024-02-15T01:32:06.189Z,38.23
2024-02-15T01:34:33.872Z,32.70
2024-02-15T01:37:01.609Z,35.40
2024-02-15T01:39:29.362Z,31.70
2024-02-15T01:41:57.664Z,33.30
2024-02-15T01:44:25.996Z,31.87
2024-02-15T01:46:55.601Z,33.37
2024-02-15T01:49:27.674Z,31.50
2024-02-15T01:51:57.811Z,32.17
2024-02-15T01:54:26.007Z,35.20
2024-02-15T01:56:53.942Z,35.07
2024-02-15T01:59:23.022Z,30.97
2024-02-15T02:01:50.603Z,31.83
2024-02-15T02:04:18.135Z,35.87
2024-02-15T02:06:45.742Z,34.30
2024-02-15T02:09:16.779Z,34.30
2024-02-15T02:11:46.017Z,33.97
2024-02-15T02:14:13.662Z,31.27
2024-02-15T02:16:41.202Z,33.27
2024-02-15T02:19:10.640Z,29.77
2024-02-15T02:21:40.196Z,33.50
2024-02-15T02:24:09.428Z,31.20
2024-02-15T02:26:37.650Z,32.50
2024-02-15T02:29:06.907Z,31.27
2024-02-15T02:31:35.994Z,32.70
2024-02-15T02:34:04.856Z,36.33
2024-02-15T02:36:32.609Z,32.73
2024-02-15T02:39:02.396Z,36.33
2024-02-15T02:41:30.419Z,32.03
2024-02-15T02:43:58.689Z,31.90
2024-02-15T02:46:26.749Z,30.40
2024-02-15T02:48:54.586Z,36.03
2024-02-15T02:51:22.368Z,32.33
2024-02-15T02:53:49.976Z,30.90
2024-02-15T02:56:19.222Z,30.53
2024-02-15T02:58:46.760Z,30.90
2024-02-15T03:01:14.401Z,36.77
2024-02-15T03:03:42.204Z,34.30
2024-02-15T03:06:09.866Z,32.87
2024-02-15T03:08:38.867Z,30.67
2024-02-15T03:11:06.471Z,35.17
2024-02-15T03:13:34.087Z,30.87
2024-02-15T03:16:01.667Z,29.23
2024-02-15T03:18:30.126Z,35.30
2024-02-15T03:20:57.943Z,30.83
2024-02-15T03:23:25.605Z,32.57
2024-02-15T03:25:54.710Z,30.83
2024-02-15T03:28:22.346Z,31.77
2024-02-15T03:30:51.192Z,30.00
2024-02-15T03:33:18.898Z,30.47
2024-02-15T03:35:46.857Z,28.77
2024-02-15T03:38:14.480Z,30.17
2024-02-15T03:40:42.197Z,28.00
2024-02-15T03:43:10.053Z,32.67
2024-02-15T03:45:37.950Z,32.40
2024-02-15T03:48:06.565Z,35.43
2024-02-15T03:50:34.399Z,35.53
2024-02-15T03:53:02.479Z,31.13
2024-02-15T03:55:30.108Z,30.77
2024-02-15T03:58:11.265Z,33.37
2024-02-15T04:00:40.182Z,31.93
2024-02-15T04:03:07.800Z,34.53
2024-02-15T04:05:35.464Z,34.30
2024-02-15T04:08:03.556Z,39.00
2024-02-15T04:10:31.179Z,32.80
2024-02-15T04:13:00.368Z,30.73
2024-02-15T04:15:27.913Z,33.87
2024-02-15T04:17:57.468Z,33.93
2024-02-15T04:20:26.384Z,35.53
2024-02-15T04:22:55.850Z,30.90
2024-02-15T04:25:24.951Z,31.90
2024-02-15T04:27:52.403Z,32.60
2024-02-15T04:30:20.936Z,30.70
2024-02-15T04:32:48.598Z,34.00
2024-02-15T04:35:16.317Z,30.40
2024-02-15T04:37:43.958Z,30.30
2024-02-15T04:40:12.046Z,29.40
2024-02-15T04:42:42.433Z,29.97
2024-02-15T04:45:12.167Z,32.17
2024-02-15T04:47:41.288Z,27.93
2024-02-15T04:50:10.101Z,28.70
2024-02-15T04:52:37.529Z,31.13
2024-02-15T04:55:06.773Z,29.13
2024-02-15T04:57:36.246Z,31.77
2024-02-15T05:00:05.424Z,30.63
2024-02-15T05:02:32.897Z,36.40
2024-02-15T05:05:00.474Z,32.77
2024-02-15T05:07:27.875Z,34.40
2024-02-15T05:09:55.309Z,37.33
2024-02-15T05:12:25.621Z,32.27
2024-02-15T05:14:54.099Z,29.37
2024-02-15T05:17:22.782Z,31.90
2024-02-15T05:19:51.332Z,30.67
2024-02-15T05:22:21.583Z,32.17
2024-02-15T05:24:48.993Z,42.53
2024-02-15T05:27:16.914Z,31.23
2024-02-15T05:29:44.529Z,33.60
2024-02-15T05:32:13.759Z,32.37
2024-02-15T05:34:41.852Z,36.93
2024-02-15T05:37:09.639Z,32.23
2024-02-15T05:39:37.098Z,35.73
2024-02-15T05:42:05.951Z,35.30
2024-02-15T05:44:33.396Z,33.27
2024-02-15T05:47:01.170Z,32.73
2024-02-15T05:49:28.768Z,34.70
2024-02-15T05:51:56.176Z,35.17
2024-02-15T05:54:23.860Z,36.60
2024-02-15T05:56:53.186Z,37.57
2024-02-15T05:59:21.349Z,37.57
2024-02-15T06:01:52.093Z,39.23
2024-02-15T06:04:20.498Z,40.40
2024-02-15T06:06:49.819Z,35.60
2024-02-15T06:09:17.679Z,38.40
2024-02-15T06:11:46.427Z,37.90
2024-02-15T06:14:14.011Z,40.67
2024-02-15T06:16:47.514Z,33.37
2024-02-15T06:19:16.155Z,34.90
2024-02-15T06:21:43.867Z,36.70
2024-02-15T06:24:11.586Z,37.47
2024-02-15T06:26:40.014Z,33.40
2024-02-15T06:29:25.533Z,37.50
2024-02-15T06:32:11.156Z,37.13
2024-02-15T06:34:56.830Z,35.30
2024-02-15T06:37:54.852Z,37.90
2024-02-15T06:40:22.754Z,36.23
2024-02-15T06:42:50.266Z,36.57
2024-02-15T06:45:19.134Z,37.30
2024-02-15T06:47:47.158Z,40.17
2024-02-15T06:50:15.042Z,36.17
2024-02-15T06:52:42.587Z,33.63
2024-02-15T06:55:12.208Z,37.20
2024-02-15T06:57:42.911Z,34.40
2024-02-15T07:00:13.005Z,40.10
2024-02-15T07:02:56.346Z,36.63
2024-02-15T07:05:28.519Z,40.83
2024-02-15T07:07:57.730Z,39.77
2024-02-15T07:10:25.256Z,41.80
2024-02-15T07:12:52.823Z,41.60
2024-02-15T07:15:21.156Z,40.73
2024-02-15T07:17:49.202Z,41.37
2024-02-15T07:20:18.441Z,39.40
2024-02-15T07:22:46.328Z,39.33
2024-02-15T07:25:13.792Z,46.30
2024-02-15T07:27:41.225Z,44.33
2024-02-15T07:30:09.803Z,44.00
2024-02-15T07:32:38.235Z,44.40
2024-02-15T07:35:07.594Z,43.07
2024-02-15T07:37:35.434Z,43.10
2024-02-15T07:40:04.545Z,42.30
2024-02-15T07:42:32.067Z,40.03
2024-02-15T07:44:59.601Z,40.03
2024-02-15T07:47:27.836Z,44.03
2024-02-15T07:49:55.873Z,38.90
2024-02-15T07:52:23.249Z,42.50
2024-02-15T07:54:50.680Z,40.70
2024-02-15T07:57:18.221Z,45.20
2024-02-15T07:59:45.967Z,41.60
2024-02-15T08:02:13.647Z,43.53
2024-02-15T08:04:42.392Z,45.70
2024-02-15T08:07:11.964Z,45.03
2024-02-15T08:09:42.045Z,36.30
2024-02-15T08:12:08.728Z,38.00
2024-02-15T08:14:36.310Z,40.33
2024-02-15T08:17:04.506Z,40.03
2024-02-15T08:19:32.068Z,40.17
2024-02-15T08:22:02.093Z,42.57
2024-02-15T08:24:29.670Z,41.30
2024-02-15T08:26:58.866Z,42.43
2024-02-15T08:29:26.265Z,35.40
2024-02-15T08:31:54.084Z,42.33
2024-02-15T08:34:21.757Z,36.57
2024-02-15T08:36:49.631Z,34.23
2024-02-15T08:39:18.009Z,32.53
2024-02-15T08:41:45.480Z,34.07
2024-02-15T08:44:16.535Z,34.80
2024-02-15T08:46:43.959Z,30.37
2024-02-15T08:49:13.087Z,38.83
2024-02-15T08:51:41.038Z,29.17
2024-02-15T08:54:10.035Z,30.50
2024-02-15T08:56:49.897Z,28.77
2024-02-15T08:59:18.461Z,35.90
2024-02-15T09:01:47.186Z,27.50
2024-02-15T09:04:14.634Z,29.00
2024-02-15T09:06:44.305Z,29.27
2024-02-15T09:09:11.934Z,31.80
2024-02-15T09:11:39.514Z,28.80
2024-02-15T09:14:06.991Z,30.10
2024-02-15T09:16:34.516Z,34.23
2024-02-15T09:19:02.939Z,32.33
2024-02-15T09:21:30.737Z,27.77
2024-02-15T09:23:58.240Z,29.50
2024-02-15T09:26:25.726Z,29.27
2024-02-15T09:28:54.457Z,34.80
2024-02-15T09:31:21.874Z,30.30
2024-02-15T09:33:49.555Z,30.03
2024-02-15T09:36:17.664Z,31.17
2024-02-15T09:38:48.235Z,28.87
2024-02-15T09:41:15.694Z,29.60
2024-02-15T09:43:43.812Z,28.83
2024-02-15T09:46:14.400Z,29.27
2024-02-15T09:48:42.679Z,29.37
2024-02-15T09:51:10.732Z,29.97
2024-02-15T09:53:38.187Z,30.50
2024-02-15T09:56:07.243Z,26.37
2024-02-15T09:58:35.996Z,29.37
2024-02-15T10:01:08.368Z,27.57
2024-02-15T10:03:36.109Z,27.87
2024-02-15T10:06:03.685Z,26.60
2024-02-15T10:08:31.302Z,29.73
2024-02-15T10:11:10.111Z,25.67
2024-02-15T10:13:38.082Z,25.83
2024-02-15T10:16:22.917Z,26.53
2024-02-15T10:18:50.608Z,25.23
2024-02-15T10:21:30.175Z,26.87
2024-02-15T10:24:05.977Z,25.50
2024-02-15T10:26:33.868Z,27.43
2024-02-15T10:29:02.812Z,27.50
2024-02-15T10:31:30.287Z,25.97
2024-02-15T10:33:59.376Z,26.87
2024-02-15T10:36:27.307Z,30.47
2024-02-15T10:38:55.534Z,26.03
2024-02-15T10:41:24.232Z,25.53
2024-02-15T10:43:52.764Z,26.27
2024-02-15T10:46:21.945Z,28.63
2024-02-15T10:48:49.532Z,26.17
2024-02-15T10:51:19.075Z,27.00
2024-02-15T10:53:53.835Z,28.17
2024-02-15T10:56:24.313Z,25.50
2024-02-15T10:58:52.289Z,24.43
2024-02-15T11:01:33.736Z,26.63
2024-02-15T11:04:05.670Z,26.90
2024-02-15T11:06:34.878Z,24.03
2024-02-15T11:09:03.967Z,24.57
2024-02-15T11:11:31.773Z,24.10
2024-02-15T11:14:17.669Z,26.37
2024-02-15T11:16:45.141Z,25.43
2024-02-15T11:19:14.161Z,25.40
2024-02-15T11:21:58.106Z,26.40
2024-02-15T11:24:36.701Z,27.30
2024-02-15T11:27:05.810Z,26.90
2024-02-15T11:30:12.158Z,26.30
2024-02-15T11:32:53.900Z,25.33
2024-02-15T11:35:23.906Z,25.07
2024-02-15T11:37:57.250Z,25.93
2024-02-15T11:40:26.395Z,26.63
2024-02-15T11:42:54.864Z,28.50
2024-02-15T11:45:22.779Z,25.40
2024-02-15T11:48:03.873Z,26.47
2024-02-15T11:50:32.988Z,27.30
2024-02-15T11:53:05.568Z,27.00
2024-02-15T11:55:33.717Z,23.23
2024-02-15T11:58:12.816Z,25.37
2024-02-15T12:00:59.250Z,27.00
2024-02-15T12:03:56.684Z,25.50
2024-02-15T12:06:33.955Z,27.47
2024-02-15T12:09:19.194Z,25.10
2024-02-15T12:12:05.266Z,25.50
2024-02-15T12:14:50.566Z,25.73
2024-02-15T12:17:36.032Z,29.00
2024-02-15T12:20:06.073Z,26.70
2024-02-15T12:22:34.714Z,26.30
2024-02-15T12:25:05.279Z,28.77
2024-02-15T12:27:32.914Z,26.87
2024-02-15T12:30:01.063Z,26.20
2024-02-15T12:32:29.341Z,27.90
2024-02-15T12:34:58.302Z,26.90
2024-02-15T12:37:26.330Z,23.90
2024-02-15T12:39:53.759Z,25.63
2024-02-15T12:42:22.895Z,26.40
2024-02-15T12:44:50.538Z,24.80
2024-02-15T12:47:25.817Z,26.30
2024-02-15T12:49:53.490Z,28.50
2024-02-15T12:52:40.731Z,26.47
2024-02-15T12:55:09.485Z,26.33
2024-02-15T12:57:36.951Z,30.90
2024-02-15T13:00:06.736Z,33.93
2024-02-15T13:02:34.423Z,26.27
2024-02-15T13:05:02.624Z,28.50
2024-02-15T13:07:30.095Z,26.40
2024-02-15T13:09:57.567Z,27.17
2024-02-15T13:12:25.087Z,31.03
2024-02-15T13:14:52.497Z,24.00
2024-02-15T13:17:19.911Z,25.50
2024-02-15T13:19:50.659Z,25.97
2024-02-15T13:22:19.526Z,35.90
2024-02-15T13:24:48.871Z,26.67
2024-02-15T13:27:16.306Z,25.53
2024-02-15T13:29:45.362Z,27.10
2024-02-15T13:32:13.279Z,25.37
2024-02-15T13:34:40.939Z,28.53
2024-02-15T13:37:08.475Z,25.20
2024-02-15T13:39:35.960Z,26.90
2024-02-15T13:42:03.533Z,26.50
2024-02-15T13:44:31.646Z,29.63
2024-02-15T13:46:59.263Z,23.73
2024-02-15T13:49:32.417Z,25.20
2024-02-15T13:51:57.686Z,29.77
2024-02-15T13:54:25.145Z,25.97
2024-02-15T13:56:52.581Z,25.90
2024-02-15T13:59:19.996Z,25.63
2024-02-15T14:01:48.306Z,25.40
2024-02-15T14:04:17.129Z,23.07
2024-02-15T14:06:45.339Z,27.23
2024-02-15T14:09:13.046Z,28.03
2024-02-15T14:11:40.646Z,24.70
2024-02-15T14:14:08.173Z,25.80
2024-02-15T14:16:35.709Z,23.80
2024-02-15T14:19:05.065Z,25.00
2024-02-15T14:21:35.140Z,24.10
2024-02-15T14:24:04.281Z,29.83
2024-02-15T14:26:35.944Z,23.07
2024-02-15T14:29:04.166Z,24.20
2024-02-15T14:31:49.998Z,27.07
2024-02-15T14:34:19.033Z,24.37
2024-02-15T14:36:48.482Z,26.23
2024-02-15T14:39:16.036Z,25.67
2024-02-15T14:41:49.828Z,26.20
2024-02-15T14:44:13.633Z,30.43
2024-02-15T14:46:41.691Z,26.77
2024-02-15T14:49:09.729Z,24.93
2024-02-15T14:51:38.160Z,29.80
2024-02-15T14:54:05.631Z,26.60
2024-02-15T14:56:38.677Z,24.57
2024-02-15T14:59:03.217Z,25.07
2024-02-15T15:01:30.678Z,24.07
2024-02-15T15:04:05.455Z,26.27
2024-02-15T15:06:50.814Z,24.20
2024-02-15T15:09:36.151Z,24.60
2024-02-15T15:12:21.874Z,25.97
2024-02-15T15:14:51.802Z,26.37
2024-02-15T15:17:21.587Z,31.93
2024-02-15T15:19:49.176Z,31.77
2024-02-15T15:22:18.353Z,25.60
2024-02-15T15:24:46.051Z,27.60
2024-02-15T15:27:13.750Z,29.03
2024-02-15T15:29:41.957Z,26.37
2024-02-15T15:32:09.527Z,24.40
2024-02-15T15:34:37.825Z,24.00
2024-02-15T15:37:07.872Z,28.97
2024-02-15T15:39:37.426Z,25.90
2024-02-15T15:42:06.793Z,22.63
2024-02-15T15:44:34.817Z,22.80
2024-02-15T15:47:02.520Z,24.80
2024-02-15T15:49:32.134Z,23.23
2024-02-15T15:51:59.945Z,24.17
2024-02-15T15:54:32.068Z,23.00
2024-02-15T15:57:01.100Z,22.50
2024-02-15T15:59:29.016Z,25.20
2024-02-15T16:01:56.431Z,22.03
2024-02-15T16:04:24.268Z,23.77
2024-02-15T16:06:51.810Z,24.40
2024-02-15T16:09:20.847Z,25.87
2024-02-15T16:11:49.946Z,31.00
2024-02-15T16:14:19.626Z,25.17
2024-02-15T16:16:47.668Z,22.83
2024-02-15T16:19:15.265Z,24.37
2024-02-15T16:21:42.663Z,23.50
2024-02-15T16:24:11.106Z,25.57
2024-02-15T16:26:38.627Z,25.73
2024-02-15T16:29:07.488Z,24.83
2024-02-15T16:31:35.025Z,27.07
2024-02-15T16:34:02.541Z,23.23
2024-02-15T16:36:30.106Z,23.13
2024-02-15T16:38:57.546Z,23.73
2024-02-15T16:41:26.028Z,27.87
2024-02-15T16:43:55.093Z,24.70
2024-02-15T16:46:24.224Z,25.17
2024-02-15T16:48:53.886Z,24.53
2024-02-15T16:51:22.928Z,23.80
2024-02-15T16:53:50.597Z,26.10
2024-02-15T16:56:19.917Z,22.57
2024-02-15T16:58:49.366Z,27.77
2024-02-15T17:01:22.660Z,23.57
2024-02-15T17:03:53.958Z,23.80
2024-02-15T17:06:21.467Z,25.27
2024-02-15T17:08:50.551Z,23.27
2024-02-15T17:11:17.979Z,22.63
2024-02-15T17:13:46.168Z,25.53
2024-02-15T17:16:13.606Z,24.93
2024-02-15T17:18:41.358Z,26.40
2024-02-15T17:21:08.875Z,26.13
2024-02-15T17:23:36.346Z,24.93
2024-02-15T17:26:05.368Z,24.50
2024-02-15T17:28:32.797Z,23.20
2024-02-15T17:31:00.252Z,26.30
2024-02-15T17:33:28.792Z,24.70
2024-02-15T17:35:57.410Z,27.47
2024-02-15T17:38:24.781Z,24.07
2024-02-15T17:40:52.996Z,25.77
2024-02-15T17:43:20.457Z,26.03
2024-02-15T17:45:50.561Z,29.80
2024-02-15T17:48:19.878Z,25.40
2024-02-15T17:50:51.779Z,24.00
2024-02-15T17:53:21.982Z,23.17
2024-02-15T17:55:51.052Z,24.93
2024-02-15T17:58:33.611Z,24.13
2024-02-15T18:01:01.092Z,24.13
2024-02-15T18:03:28.779Z,25.93
2024-02-15T18:05:56.278Z,26.97
2024-02-15T18:08:23.765Z,21.77
2024-02-15T18:10:51.234Z,25.33
2024-02-15T18:13:18.729Z,30.80
2024-02-15T18:15:50.205Z,23.50
2024-02-15T18:18:18.885Z,24.50
2024-02-15T18:20:46.613Z,24.50
2024-02-15T18:23:14.054Z,23.20
2024-02-15T18:25:41.478Z,23.63
2024-02-15T18:28:08.935Z,23.60
2024-02-15T18:30:38.019Z,24.73
2024-02-15T18:33:05.792Z,25.33
2024-02-15T18:35:33.379Z,25.03
2024-02-15T18:38:00.834Z,23.63
2024-02-15T18:40:29.932Z,22.30
2024-02-15T18:42:58.310Z,24.67
2024-02-15T18:45:25.806Z,24.53
2024-02-15T18:47:53.523Z,23.53
2024-02-15T18:50:23.070Z,23.43
2024-02-15T18:52:51.338Z,22.53
2024-02-15T18:55:18.902Z,24.93
2024-02-15T18:57:47.112Z,22.63
2024-02-15T19:00:25.294Z,26.03
2024-02-15T19:02:46.520Z,24.00
2024-02-15T19:05:18.531Z,26.67
2024-02-15T19:07:46.035Z,26.90
2024-02-15T19:10:13.691Z,24.33
2024-02-15T19:12:41.317Z,24.57
2024-02-15T19:15:08.855Z,24.40
2024-02-15T19:17:46.406Z,25.30
2024-02-15T19:20:13.959Z,23.20
2024-02-15T19:22:43.339Z,23.73
2024-02-15T19:25:12.470Z,23.70
2024-02-15T19:27:39.908Z,23.60
2024-02-15T19:30:10.240Z,22.23
2024-02-15T19:32:39.787Z,27.87
2024-02-15T19:35:09.311Z,22.87
2024-02-15T19:37:37.180Z,23.17
2024-02-15T19:40:09.218Z,25.10
2024-02-15T19:42:36.630Z,26.90
2024-02-15T19:45:04.157Z,27.37
2024-02-15T19:47:37.516Z,22.70
2024-02-15T19:50:05.419Z,25.97
2024-02-15T19:52:32.958Z,22.80
2024-02-15T19:55:00.437Z,24.53
2024-02-15T19:57:28.057Z,24.37
2024-02-15T19:59:57.313Z,23.70
2024-02-15T20:02:24.811Z,22.50
2024-02-15T20:04:52.280Z,24.53
2024-02-15T20:07:21.567Z,21.23
2024-02-15T20:09:49.661Z,27.03
2024-02-15T20:12:17.791Z,24.83
2024-02-15T20:14:45.865Z,24.40
2024-02-15T20:17:14.625Z,24.40
2024-02-15T20:19:42.140Z,24.17
2024-02-15T20:22:17.089Z,26.50
2024-02-15T20:24:45.094Z,22.23
2024-02-15T20:27:13.359Z,26.80
2024-02-15T20:29:41.166Z,25.67
2024-02-15T20:32:08.606Z,22.67
2024-02-15T20:34:36.186Z,23.87
2024-02-15T20:37:05.179Z,23.57
2024-02-15T20:39:32.848Z,24.53
2024-02-15T20:42:00.728Z,23.13
2024-02-15T20:44:28.178Z,24.17
2024-02-15T20:46:55.650Z,25.23
2024-02-15T20:49:23.187Z,27.87
2024-02-15T20:51:52.324Z,23.63
2024-02-15T20:54:19.821Z,25.00
2024-02-15T20:56:48.367Z,28.20
2024-02-15T20:59:16.835Z,23.27
2024-02-15T21:01:44.359Z,25.13
2024-02-15T21:04:12.084Z,27.03
2024-02-15T21:06:40.305Z,29.47
2024-02-15T21:09:09.432Z,29.37
2024-02-15T21:11:36.869Z,24.80
2024-02-15T21:14:04.381Z,25.00
2024-02-15T21:16:33.774Z,23.90
2024-02-15T21:19:03.009Z,23.27
2024-02-15T21:21:30.614Z,24.83
2024-02-15T21:23:58.100Z,23.10
2024-02-15T21:26:25.911Z,22.70
2024-02-15T21:28:54.128Z,22.60
2024-02-15T21:31:23.230Z,25.00
2024-02-15T21:33:50.944Z,26.37
2024-02-15T21:36:19.686Z,23.50
2024-02-15T21:38:47.207Z,25.13
2024-02-15T21:41:14.666Z,23.17
2024-02-15T21:43:42.783Z,24.00
2024-02-15T21:46:10.288Z,24.63
2024-02-15T21:48:38.827Z,24.00
2024-02-15T21:51:07.518Z,23.33
2024-02-15T21:53:35.872Z,24.57
2024-02-15T21:56:03.332Z,23.10
2024-02-15T21:58:30.783Z,26.50
2024-02-15T22:00:58.279Z,25.30
2024-02-15T22:03:25.730Z,25.17
2024-02-15T22:05:53.196Z,24.20
2024-02-15T22:08:20.668Z,26.73
2024-02-15T22:10:49.842Z,25.67
2024-02-15T22:13:18.738Z,26.73
2024-02-15T22:15:52.077Z,26.50
2024-02-15T22:18:19.623Z,24.60
2024-02-15T22:20:47.581Z,24.53
2024-02-15T22:23:15.052Z,25.20
2024-02-15T22:25:42.608Z,27.60
2024-02-15T22:28:10.713Z,22.30
2024-02-15T22:30:38.173Z,26.87
2024-02-15T22:33:05.935Z,27.87
2024-02-15T22:35:35.191Z,27.50
2024-02-15T22:38:02.627Z,26.80
2024-02-15T22:40:30.080Z,27.30
2024-02-15T22:42:57.548Z,26.53
2024-02-15T22:45:26.350Z,26.27
2024-02-15T22:47:54.719Z,29.43
2024-02-15T22:50:23.347Z,27.60
2024-02-15T22:52:51.050Z,29.23
2024-02-15T22:55:18.634Z,27.20
2024-02-15T22:57:47.454Z,27.00
2024-02-15T23:00:15.175Z,25.53
2024-02-15T23:02:44.031Z,25.03
2024-02-15T23:05:11.737Z,25.67
2024-02-15T23:07:39.730Z,25.53
2024-02-15T23:10:07.657Z,25.20
2024-02-15T23:12:36.944Z,25.13
2024-02-15T23:15:04.863Z,31.47
2024-02-15T23:17:32.410Z,25.37
2024-02-15T23:19:59.892Z,25.63
2024-02-15T23:22:28.243Z,30.10
2024-02-15T23:24:57.334Z,24.00
2024-02-15T23:27:25.274Z,25.33
2024-02-15T23:29:52.818Z,25.03
2024-02-15T23:32:20.255Z,28.00
2024-02-15T23:34:48.687Z,23.60
2024-02-15T23:37:34.594Z,25.90
2024-02-15T23:40:21.871Z,25.30
2024-02-15T23:42:49.463Z,23.50
2024-02-15T23:45:16.970Z,25.13
2024-02-15T23:47:45.423Z,26.87
2024-02-15T23:50:14.573Z,25.07
2024-02-15T23:52:43.223Z,24.63
2024-02-15T23:55:10.645Z,27.43
2024-02-15T23:57:38.113Z,26.50
